Time;durP1;ratioP1;P1;durP2;ratioP2;P2;SDS_P1;SDS_P2;PMS_P1;PMS_P2;Temp;Humidity;BMP_temperature;BMP_pressure;BME280_temperature;BME280_humidity;BME280_pressure;Samples;Min_cycle;Max_cycle;Signal;HPM_P1;HPM_P2
2023/10/17 00:04:50;;;;;;;3.85;2.90;;;;;;;10.57;63.11;100493.34;10345131;28;20593;-55
2023/10/17 00:09:53;;;;;;;3.03;2.72;;;;;;;10.65;63.50;100505.22;10346012;28;20045;-54
2023/10/17 00:19:57;;;;;;;3.42;2.60;;;;;;;10.53;62.99;100494.53;10347917;28;20050;-54
2023/10/17 00:25:09;;;;;;;4.22;2.33;;;;;;;10.49;63.57;100489.56;10342488;28;20069;-55
2023/10/17 00:30:17;;;;;;;2.40;2.20;;;;;;;10.47;64.08;100476.38;10343702;28;20132;-55
2023/10/17 00:35:19;;;;;;;2.63;2.20;;;;;;;10.44;63.41;100481.94;10344414;28;20044;-55
2023/10/17 00:45:41;;;;;;;2.40;2.00;;;;;;;10.36;63.11;100463.06;10347030;28;20049;-55
2023/10/17 00:50:45;;;;;;;4.55;2.00;;;;;;;10.21;63.25;100459.72;10342102;28;20060;-55
2023/10/17 00:55:55;;;;;;;3.53;1.90;;;;;;;10.29;63.08;100467.94;10343294;28;20791;-55
2023/10/17 01:01:09;;;;;;;2.28;1.20;;;;;;;10.25;63.56;100472.66;10345033;28;20041;-55
2023/10/17 01:06:23;;;;;;;3.40;1.83;;;;;;;10.05;63.34;100438.75;10340959;28;20057;-55
2023/10/17 01:11:29;;;;;;;3.25;1.63;;;;;;;10.16;63.36;100462.69;10341865;28;20046;-55
2023/10/17 01:16:34;;;;;;;3.05;1.85;;;;;;;10.20;63.07;100477.47;10346342;28;20050;-55
2023/10/17 01:21:36;;;;;;;2.22;1.60;;;;;;;10.16;63.89;100462.69;10339781;28;20055;-55
2023/10/17 01:26:38;;;;;;;2.90;1.70;;;;;;;10.15;62.95;100455.69;10342745;28;20061;-55
2023/10/17 01:31:42;;;;;;;3.08;1.70;;;;;;;10.13;63.67;100468.25;10347298;28;20061;-55
2023/10/17 01:36:44;;;;;;;3.30;1.95;;;;;;;10.11;63.57;100438.28;10342782;28;20108;-55
2023/10/17 01:41:48;;;;;;;2.95;2.03;;;;;;;10.06;63.65;100445.75;10341913;28;20066;-55
2023/10/17 01:46:50;;;;;;;2.90;1.50;;;;;;;9.95;63.54;100443.03;10344510;28;20531;-57
2023/10/17 01:51:51;;;;;;;3.58;2.03;;;;;;;9.93;63.55;100466.25;10338258;28;20169;-55
2023/10/17 01:56:58;;;;;;;2.92;1.85;;;;;;;9.95;64.02;100481.13;10339341;28;20132;-55
2023/10/17 02:02:03;;;;;;;2.97;1.98;;;;;;;9.87;64.09;100463.06;10341910;28;20150;-55
2023/10/17 02:07:04;;;;;;;3.03;2.47;;;;;;;9.85;63.38;100462.34;10342912;28;20099;-58
2023/10/17 02:12:08;;;;;;;3.08;1.85;;;;;;;9.83;63.74;100461.63;10349538;28;20308;-58
2023/10/17 02:17:15;;;;;;;3.87;2.40;;;;;;;9.76;64.43;100443.56;10353703;28;20046;-55
2023/10/17 02:22:17;;;;;;;4.20;2.13;;;;;;;9.75;64.33;100441.88;10349852;28;20131;-55
2023/10/17 02:27:21;;;;;;;3.42;2.00;;;;;;;9.58;63.98;100436.00;10349297;28;20631;-55
2023/10/17 02:32:23;;;;;;;2.55;2.20;;;;;;;9.79;65.78;100478.75;10343232;28;20065;-57
2023/10/17 02:37:29;;;;;;;2.40;2.20;;;;;;;9.78;64.26;100474.38;10348972;28;20054;-56
2023/10/17 02:42:31;;;;;;;3.78;2.65;;;;;;;9.74;64.31;100459.63;10348009;28;20147;-54
2023/10/17 02:47:34;;;;;;;3.30;2.55;;;;;;;9.70;65.08;100451.03;10354128;28;20041;-54
2023/10/17 02:52:36;;;;;;;2.95;2.25;;;;;;;9.73;65.06;100436.69;10344871;28;20065;-55
2023/10/17 02:57:38;;;;;;;5.38;2.45;;;;;;;9.70;65.19;100423.63;10348316;28;20137;-55
2023/10/17 03:02:40;;;;;;;3.38;2.42;;;;;;;9.72;64.42;100437.63;10343730;28;20262;-55
2023/10/17 03:07:42;;;;;;;3.47;2.60;;;;;;;9.70;65.23;100435.09;10341158;28;20049;-55
2023/10/17 03:12:53;;;;;;;2.40;2.13;;;;;;;9.71;64.17;100433.25;10350864;28;20054;-55
2023/10/17 03:18:00;;;;;;;4.97;2.20;;;;;;;9.71;64.67;100435.94;10346239;28;20053;-55
2023/10/17 03:23:05;;;;;;;6.18;2.13;;;;;;;9.66;64.25;100427.47;10345794;28;20057;-55
2023/10/17 03:28:13;;;;;;;2.30;1.00;;;;;;;9.74;65.05;100425.06;10351729;28;20135;-55
2023/10/17 03:33:25;;;;;;;3.00;1.90;;;;;;;9.73;64.45;100412.75;10352399;28;20823;-55
2023/10/17 03:38:30;;;;;;;2.35;1.80;;;;;;;9.66;64.90;100407.03;10348491;28;20061;-54
2023/10/17 03:43:39;;;;;;;3.33;1.67;;;;;;;9.71;63.50;100417.31;10344938;28;20077;-54
2023/10/17 03:48:49;;;;;;;4.28;2.50;;;;;;;9.67;65.22;100415.88;10341890;28;20228;-55
2023/10/17 03:53:53;;;;;;;2.75;2.22;;;;;;;9.64;64.54;100430.22;10344613;28;20049;-55
2023/10/17 03:58:59;;;;;;;3.80;2.70;;;;;;;9.65;64.34;100412.47;10347935;28;20074;-54
2023/10/17 04:04:02;;;;;;;3.17;1.90;;;;;;;9.57;64.61;100406.88;10345820;28;20056;-55
2023/10/17 04:09:26;;;;;;;2.65;2.40;;;;;;;9.65;64.71;100409.81;10345731;28;20069;-57
2023/10/17 04:14:34;;;;;;;2.60;2.28;;;;;;;9.66;64.08;100406.19;10340603;28;20455;-54
2023/10/17 04:19:39;;;;;;;4.70;2.00;;;;;;;9.66;63.95;100416.81;10343506;28;20282;-55
2023/10/17 04:24:47;;;;;;;2.53;1.90;;;;;;;9.66;64.72;100411.50;10346417;28;20060;-54
2023/10/17 04:29:56;;;;;;;1.90;1.63;;;;;;;9.57;63.34;100405.06;10328646;28;20075;-55
2023/10/17 04:34:57;;;;;;;3.05;1.90;;;;;;;9.65;64.88;100420.44;10335748;28;20415;-55
2023/10/17 04:45:28;;;;;;;2.42;1.73;;;;;;;9.64;65.56;100429.38;10326942;28;20830;-54
2023/10/17 04:50:40;;;;;;;3.45;2.15;;;;;;;9.66;65.62;100430.13;10346262;28;21133;-54
2023/10/17 04:56:00;;;;;;;3.10;2.10;;;;;;;9.64;65.34;100424.91;10342473;28;20141;-54
2023/10/17 06:21:35;;;;;;;2.63;1.80;;;;;;;9.39;64.55;100433.81;10345202;28;20053;-54
2023/10/17 06:37:19;;;;;;;3.05;1.65;;;;;;;9.47;63.34;100423.50;10345758;28;20049;-55
2023/10/17 06:42:27;;;;;;;5.60;1.95;;;;;;;9.33;64.59;100413.03;10341120;28;20260;-53
2023/10/17 06:47:31;;;;;;;3.35;2.00;;;;;;;9.57;65.17;100444.91;10345646;28;20061;-55
2023/10/17 06:57:56;;;;;;;3.13;1.75;;;;;;;9.62;65.13;100433.94;10349418;28;20063;-54
2023/10/17 07:02:57;;;;;;;5.15;2.25;;;;;;;9.64;65.06;100429.38;10340395;28;20049;-54
2023/10/17 07:07:59;;;;;;;4.15;1.95;;;;;;;9.70;64.91;100442.22;10342994;28;20050;-54
2023/10/17 07:13:39;;;;;;;2.50;1.85;;;;;;;9.76;63.95;100433.78;10344014;28;20061;-54
2023/10/17 07:23:45;;;;;;;4.65;2.65;;;;;;;9.82;64.85;100428.00;10341253;28;20430;-54
2023/10/17 07:28:50;;;;;;;3.97;1.98;;;;;;;9.80;63.46;100418.44;10338980;28;20606;-55
2023/10/17 07:39:36;;;;;;;3.63;2.13;;;;;;;9.88;64.31;100419.56;10344062;28;20068;-55
2023/10/17 07:44:34;;;;;;;4.15;2.65;;;;;;;9.93;64.02;100445.81;10335945;28;20042;-55
2023/10/17 07:49:42;;;;;;;2.90;1.80;;;;;;;10.02;64.00;100438.97;10345250;28;20064;-54
2023/10/17 07:55:17;;;;;;;2.90;2.00;;;;;;;9.98;64.26;100426.84;10342574;28;20349;-55
2023/10/17 08:00:33;;;;;;;2.42;2.05;;;;;;;10.09;64.49;100434.88;10341300;28;20085;-55
2023/10/17 08:05:44;;;;;;;1.83;1.50;;;;;;;10.15;64.75;100442.41;10342783;28;20359;-55
2023/10/17 08:10:46;;;;;;;2.35;1.80;;;;;;;10.24;65.45;100465.66;10344213;28;20158;-54
2023/10/17 08:15:54;;;;;;;4.10;1.77;;;;;;;10.27;62.64;100451.25;10342607;28;20068;-54
2023/10/17 08:26:03;;;;;;;2.55;1.92;;;;;;;10.42;65.35;100442.13;10346203;28;20175;-55
2023/10/17 08:36:49;;;;;;;3.20;1.77;;;;;;;10.53;62.79;100470.56;10338397;28;20060;-55
2023/10/17 08:41:51;;;;;;;2.42;1.80;;;;;;;10.57;63.49;100465.88;10348030;28;20833;-58
2023/10/17 08:46:54;;;;;;;2.65;2.17;;;;;;;10.67;63.95;100450.03;10335184;28;20079;-57
2023/10/17 08:51:56;;;;;;;5.05;2.33;;;;;;;10.69;64.21;100453.41;10338289;28;20065;-56
2023/10/17 08:57:01;;;;;;;4.07;1.60;;;;;;;10.73;63.25;100450.41;10334812;28;20109;-56
2023/10/17 09:02:14;;;;;;;3.85;2.63;;;;;;;10.71;64.30;100446.16;10338003;28;20565;-55
2023/10/17 09:07:31;;;;;;;2.10;1.80;;;;;;;10.83;65.47;100450.53;10338152;28;20049;-55
2023/10/17 09:18:07;;;;;;;3.38;1.85;;;;;;;10.86;63.18;100430.81;10290724;28;20053;-54
2023/10/17 09:23:28;;;;;;;2.03;1.83;;;;;;;10.88;62.82;100427.03;10349405;28;20056;-54
2023/10/17 09:28:30;;;;;;;3.40;2.13;;;;;;;10.89;61.06;100425.25;10352628;28;20158;-55
2023/10/17 09:33:35;;;;;;;3.83;2.63;;;;;;;10.94;62.99;100421.25;10350437;28;20042;-54
2023/10/17 09:38:45;;;;;;;2.53;1.90;;;;;;;11.01;61.34;100420.75;10350916;28;20582;-54
2023/10/17 09:43:49;;;;;;;4.70;2.38;;;;;;;11.04;63.46;100432.00;10347086;28;20576;-55
2023/10/17 09:48:52;;;;;;;3.03;1.85;;;;;;;10.85;61.14;100416.63;10346155;28;20278;-56
2023/10/17 09:53:58;;;;;;;2.63;1.83;;;;;;;10.93;62.25;100414.22;10341990;28;20072;-56
2023/10/17 09:59:05;;;;;;;1.90;1.45;;;;;;;11.05;61.05;100414.19;10343323;28;20389;-56
2023/10/17 10:04:07;;;;;;;5.63;4.10;;;;;;;11.11;58.20;100424.38;10342109;28;20046;-56
2023/10/17 10:09:15;;;;;;;4.70;1.40;;;;;;;11.18;60.84;100430.88;10340446;28;20195;-56
2023/10/17 10:14:23;;;;;;;2.03;1.50;;;;;;;11.24;59.10;100430.41;10344780;28;20056;-55
2023/10/17 10:19:46;;;;;;;2.22;1.33;;;;;;;11.27;59.70;100416.00;10342489;28;20593;-57
2023/10/17 10:25:04;;;;;;;1.95;1.23;;;;;;;11.24;57.54;100433.06;10347244;28;20124;-56
2023/10/17 10:30:30;;;;;;;3.80;2.60;;;;;;;11.31;59.51;100404.94;10343228;28;20607;-55
2023/10/17 10:35:32;;;;;;;2.88;1.60;;;;;;;11.12;57.11;100402.94;10345747;28;20057;-55
2023/10/17 10:40:36;;;;;;;3.30;1.30;;;;;;;11.25;59.14;100413.44;10343513;28;20122;-57
2023/10/17 10:45:50;;;;;;;3.27;1.67;;;;;;;11.24;58.20;100406.41;10339900;28;20151;-56
2023/10/17 10:50:55;;;;;;;2.28;1.65;;;;;;;11.47;60.43;100401.06;10341504;28;20174;-56
2023/10/17 10:56:02;;;;;;;2.88;1.88;;;;;;;11.59;59.03;100400.03;10344182;28;20060;-55
2023/10/17 11:01:07;;;;;;;3.25;1.60;;;;;;;11.60;56.92;100360.88;10348031;28;20090;-54
2023/10/17 11:06:10;;;;;;;3.42;1.80;;;;;;;11.70;59.53;100368.97;10339078;28;20090;-54
2023/10/17 11:11:16;;;;;;;2.65;1.83;;;;;;;11.84;56.05;100356.19;10338718;28;20349;-54
2023/10/17 11:16:21;;;;;;;2.30;1.42;;;;;;;12.01;57.81;100360.13;10351170;28;20045;-53
2023/10/17 11:21:23;;;;;;;2.80;2.03;;;;;;;12.19;56.77;100332.84;10345623;28;20049;-55
2023/10/17 11:26:29;;;;;;;2.70;2.05;;;;;;;12.25;56.31;100328.78;10340679;28;20100;-54
2023/10/17 11:31:32;;;;;;;3.10;2.60;;;;;;;12.59;54.80;100326.69;10344431;28;20073;-55
2023/10/17 11:36:47;;;;;;;3.17;1.48;;;;;;;12.99;54.88;100314.31;10341328;28;20170;-55
2023/10/17 11:41:54;;;;;;;3.08;1.95;;;;;;;13.92;52.67;100294.19;10344204;28;20700;-55
2023/10/17 11:47:06;;;;;;;3.15;1.95;;;;;;;14.81;48.64;100303.59;10342132;28;20052;-55
2023/10/17 11:52:09;;;;;;;1.50;1.40;;;;;;;15.86;46.17;100290.50;10340497;28;20263;-56
2023/10/17 11:57:12;;;;;;;;;;;;;;;16.92;43.35;100300.13;10341733;28;20044;-57
2023/10/17 12:02:15;;;;;;;2.70;1.50;;;;;;;16.99;42.43;100292.25;10338743;28;20089;-55
2023/10/17 12:07:19;;;;;;;4.72;1.48;;;;;;;17.39;42.57;100276.34;10344164;28;20075;-56
2023/10/17 12:12:22;;;;;;;;;;;;;;;18.46;39.09;100281.56;10342308;28;20603;-56
2023/10/17 12:17:25;;;;;;;2.40;0.90;;;;;;;19.34;39.24;100293.94;10342350;28;19967;-57
2023/10/17 12:22:26;;;;;;;2.88;1.40;;;;;;;20.25;35.85;100280.47;10342764;28;20067;-60
2023/10/17 12:27:28;;;;;;;2.33;1.50;;;;;;;20.66;35.85;100269.19;10341330;28;20453;-56
2023/10/17 12:32:31;;;;;;;1.90;0.90;;;;;;;21.19;33.93;100274.34;10344272;28;20309;-56
2023/10/17 12:37:43;;;;;;;2.08;1.10;;;;;;;21.74;33.95;100275.69;10343669;28;20046;-55
2023/10/17 12:42:46;;;;;;;1.33;1.00;;;;;;;22.17;32.88;100262.03;10340412;28;20067;-56
2023/10/17 12:47:48;;;;;;;3.22;1.40;;;;;;;22.56;32.41;100261.44;10335197;28;20379;-56
2023/10/17 12:52:50;;;;;;;3.67;1.60;;;;;;;22.76;31.17;100253.38;10337171;28;20095;-56
2023/10/17 12:57:51;;;;;;;2.70;1.00;;;;;;;23.13;30.34;100253.06;10343491;28;20714;-56
2023/10/17 13:02:53;;;;;;;2.40;1.00;;;;;;;23.30;28.73;100243.47;10338162;28;20092;-56
2023/10/17 13:07:55;;;;;;;2.22;1.10;;;;;;;23.94;28.70;100235.72;10336577;28;20584;-56
2023/10/17 13:13:00;;;;;;;1.57;1.07;;;;;;;24.46;29.04;100241.25;10335412;28;20639;-54
2023/10/17 13:18:03;;;;;;;2.40;1.10;;;;;;;25.89;26.85;100221.88;10341155;28;20126;-55
2023/10/17 13:23:05;;;;;;;2.72;1.33;;;;;;;27.20;24.55;100228.84;10342034;28;20085;-54
2023/10/17 13:28:07;;;;;;;1.75;0.98;;;;;;;28.33;24.35;100212.34;10332519;28;20455;-55
2023/10/17 13:33:09;;;;;;;2.13;0.80;;;;;;;29.03;23.22;100221.38;10338866;28;20310;-55
2023/10/17 13:38:10;;;;;;;1.60;1.08;;;;;;;28.52;24.39;100216.56;10336753;28;20125;-57
2023/10/17 13:43:13;;;;;;;2.22;0.95;;;;;;;29.90;22.33;100214.59;10335844;28;20056;-54
2023/10/17 13:48:14;;;;;;;2.33;1.10;;;;;;;30.49;22.28;100200.28;10335851;28;20199;-55
2023/10/17 13:53:21;;;;;;;3.20;1.23;;;;;;;31.07;19.77;100204.47;10336173;28;20053;-56
2023/10/17 13:58:23;;;;;;;2.75;0.90;;;;;;;31.25;18.98;100195.00;10339444;28;20665;-56
2023/10/17 14:03:25;;;;;;;2.25;0.90;;;;;;;31.17;19.33;100193.56;10341927;28;20120;-57
2023/10/17 14:08:27;;;;;;;1.60;1.00;;;;;;;31.85;19.14;100187.44;10353256;28;20060;-56
2023/10/17 14:13:29;;;;;;;3.05;0.70;;;;;;;32.79;18.62;100184.81;10349001;28;20391;-56
2023/10/17 14:18:40;;;;;;;3.97;1.10;;;;;;;32.80;17.52;100188.38;10346991;28;20381;-57
2023/10/17 14:23:57;;;;;;;3.38;0.68;;;;;;;32.53;17.12;100178.38;10348295;28;20303;-55
2023/10/17 14:29:03;;;;;;;2.75;0.98;;;;;;;32.20;18.41;100177.72;10348419;28;20104;-57
2023/10/17 14:34:09;;;;;;;1.65;0.88;;;;;;;32.00;18.41;100164.69;10346775;28;20643;-56
2023/10/17 14:39:11;;;;;;;1.83;0.80;;;;;;;30.14;19.40;100145.75;10349103;28;20053;-55
2023/10/17 14:44:12;;;;;;;2.57;1.33;;;;;;;28.09;21.74;100165.06;10347597;28;21133;-56
2023/10/17 14:49:14;;;;;;;3.30;1.50;;;;;;;24.09;26.35;100169.41;10345080;28;20041;-56
2023/10/17 14:54:15;;;;;;;3.42;2.17;;;;;;;21.92;29.08;100170.38;10343633;28;20068;-55
2023/10/17 14:59:17;;;;;;;2.15;1.00;;;;;;;20.20;31.30;100160.44;10345650;28;20437;-57
2023/10/17 15:04:20;;;;;;;2.60;0.80;;;;;;;18.88;34.47;100129.38;10357597;28;20057;-55
2023/10/17 15:09:21;;;;;;;2.08;1.20;;;;;;;18.91;35.34;100155.97;10348439;28;20084;-56
2023/10/17 15:14:23;;;;;;;3.17;1.95;;;;;;;18.63;35.98;100137.63;10348060;28;20049;-57
2023/10/17 15:19:25;;;;;;;2.65;1.50;;;;;;;18.26;35.60;100130.28;10347953;28;20057;-55
2023/10/17 15:24:27;;;;;;;1.70;1.00;;;;;;;17.92;37.22;100121.50;10353156;28;20065;-55
2023/10/17 15:29:31;;;;;;;2.50;1.90;;;;;;;17.56;37.15;100129.16;10346971;28;20072;-55
2023/10/17 15:34:33;;;;;;;2.30;1.70;;;;;;;17.30;36.06;100147.19;10353553;28;20057;-55
2023/10/17 15:39:37;;;;;;;2.10;1.17;;;;;;;17.03;36.51;100144.88;10348596;28;20430;-55
2023/10/17 15:44:40;;;;;;;1.98;0.73;;;;;;;16.60;36.41;100145.81;10345801;28;20117;-54
2023/10/17 15:49:42;;;;;;;2.30;1.00;;;;;;;16.33;38.62;100144.22;10324540;28;20049;-53
2023/10/17 15:54:47;;;;;;;1.15;0.63;;;;;;;16.46;40.00;100142.94;10341795;28;20065;-54
2023/10/17 15:59:50;;;;;;;1.58;1.00;;;;;;;16.15;38.02;100133.59;10353088;28;20049;-54
2023/10/17 16:04:51;;;;;;;1.67;0.75;;;;;;;16.05;38.42;100130.22;10349262;28;20060;-54
2023/10/17 16:09:53;;;;;;;1.38;0.98;;;;;;;15.74;40.22;100139.59;10353908;28;20848;-54
2023/10/17 16:14:56;;;;;;;2.65;1.63;;;;;;;15.74;40.08;100146.81;10354618;28;20041;-54
2023/10/17 16:19:57;;;;;;;4.05;1.85;;;;;;;15.65;40.36;100145.94;10348818;28;20542;-54
2023/10/17 16:25:00;;;;;;;1.70;1.13;;;;;;;15.55;41.77;100148.75;10347138;28;20057;-53
2023/10/17 16:30:13;;;;;;;3.15;1.50;;;;;;;15.44;43.33;100149.00;10350400;28;20048;-53
2023/10/17 16:35:18;;;;;;;2.58;1.70;;;;;;;15.26;43.62;100137.47;10351006;28;20068;-54
2023/10/17 16:40:22;;;;;;;1.75;1.40;;;;;;;15.19;43.18;100151.53;10348085;28;20174;-54
2023/10/17 16:45:24;;;;;;;3.67;2.40;;;;;;;15.08;44.78;100149.06;10346188;28;20215;-52
2023/10/17 16:50:25;;;;;;;2.50;2.20;;;;;;;14.93;44.25;100154.13;10340199;28;20122;-54
2023/10/17 16:55:27;;;;;;;3.20;2.30;;;;;;;14.77;44.84;100165.56;10340651;28;20143;-55
2023/10/17 17:00:30;;;;;;;4.38;2.20;;;;;;;14.64;45.51;100179.34;10347654;28;20122;-54
2023/10/17 17:05:32;;;;;;;2.60;2.00;;;;;;;14.55;46.11;100176.69;10346393;28;20513;-55
2023/10/17 17:10:41;;;;;;;2.70;1.90;;;;;;;14.45;47.05;100188.28;10344538;28;20076;-55
2023/10/17 17:15:45;;;;;;;2.60;1.90;;;;;;;14.32;46.06;100175.28;10342874;28;20518;-56
2023/10/17 17:20:49;;;;;;;5.57;2.83;;;;;;;14.16;47.32;100169.72;10341756;28;20061;-54
2023/10/17 17:25:51;;;;;;;4.60;2.50;;;;;;;14.13;47.79;100176.22;10339216;28;20053;-56
2023/10/17 17:30:52;;;;;;;2.78;2.55;;;;;;;13.96;47.52;100152.91;10344871;28;20191;-54
2023/10/17 17:35:53;;;;;;;3.83;3.08;;;;;;;13.93;47.40;100163.91;10338513;28;20638;-58
2023/10/17 17:40:55;;;;;;;6.43;3.63;;;;;;;13.85;47.33;100163.81;10345384;28;20074;-56
2023/10/17 17:45:57;;;;;;;4.53;3.50;;;;;;;13.73;47.94;100163.97;10353091;28;20763;-55
2023/10/17 17:50:59;;;;;;;4.32;3.92;;;;;;;13.68;47.46;100179.63;10352391;28;20503;-55
2023/10/17 17:56:01;;;;;;;5.35;3.08;;;;;;;13.46;48.44;100171.97;10346517;28;20075;-55
2023/10/17 18:01:08;;;;;;;5.15;3.25;;;;;;;13.39;49.67;100151.16;10348985;28;20204;-56
2023/10/17 18:06:11;;;;;;;4.07;3.00;;;;;;;13.42;48.98;100161.56;10344558;28;20041;-55
2023/10/17 18:11:12;;;;;;;4.65;2.58;;;;;;;13.40;49.85;100163.50;10350093;28;20553;-56
2023/10/17 18:16:14;;;;;;;4.82;2.40;;;;;;;13.31;49.38;100172.38;10343098;28;20529;-56
2023/10/17 18:21:17;;;;;;;4.25;2.85;;;;;;;13.24;50.11;100165.91;10344150;28;20058;-56
2023/10/17 18:26:19;;;;;;;3.33;2.33;;;;;;;13.25;49.68;100165.75;10348296;28;20053;-56
2023/10/17 18:31:21;;;;;;;2.30;1.88;;;;;;;13.18;49.81;100171.81;10345052;28;20092;-56
2023/10/17 18:36:23;;;;;;;2.85;2.50;;;;;;;13.09;50.22;100163.69;10344516;28;20049;-56
2023/10/17 18:41:25;;;;;;;3.20;1.55;;;;;;;13.06;49.89;100161.28;10347938;28;20119;-56
2023/10/17 18:46:27;;;;;;;2.60;2.10;;;;;;;12.99;49.70;100157.50;10345224;28;20205;-56
2023/10/17 18:51:33;;;;;;;3.28;1.67;;;;;;;12.88;49.82;100157.63;10335370;28;20056;-54
2023/10/17 18:56:36;;;;;;;2.45;1.90;;;;;;;12.85;50.85;100153.44;10335691;28;20048;-56
2023/10/17 19:01:39;;;;;;;2.47;1.80;;;;;;;12.81;51.30;100154.69;10349709;28;20729;-56
2023/10/17 19:06:40;;;;;;;3.45;1.83;;;;;;;12.77;50.31;100153.28;10346650;28;20053;-56
2023/10/17 19:11:42;;;;;;;2.08;1.83;;;;;;;12.63;51.61;100148.38;10352054;28;20114;-56
2023/10/17 19:16:44;;;;;;;4.00;1.67;;;;;;;12.65;51.24;100155.22;10344976;28;20302;-56
2023/10/17 19:21:47;;;;;;;1.88;1.67;;;;;;;12.60;50.98;100154.81;10342165;28;20115;-55
2023/10/17 19:26:49;;;;;;;4.65;1.80;;;;;;;12.45;51.52;100145.53;10334565;28;20053;-55
2023/10/17 19:31:51;;;;;;;1.90;1.50;;;;;;;12.49;51.31;100149.59;10348792;28;20580;-55
2023/10/17 19:36:54;;;;;;;2.63;1.98;;;;;;;12.43;51.24;100148.34;10349305;28;20482;-54
2023/10/17 19:42:00;;;;;;;4.18;2.50;;;;;;;12.31;53.08;100133.41;10342901;28;20054;-55
2023/10/17 19:47:03;;;;;;;5.55;2.95;;;;;;;12.28;52.81;100139.88;10345541;28;20049;-56
2023/10/17 19:52:05;;;;;;;5.85;2.65;;;;;;;12.27;52.91;100143.53;10342384;28;20493;-55
2023/10/17 19:57:06;;;;;;;4.68;2.90;;;;;;;12.15;52.02;100139.28;10342023;28;20140;-55
2023/10/17 20:02:10;;;;;;;3.63;2.80;;;;;;;12.14;53.27;100149.09;10343782;28;20053;-55
2023/10/17 20:07:11;;;;;;;3.70;2.80;;;;;;;12.13;52.68;100141.22;10333024;28;21087;-56
2023/10/17 20:12:13;;;;;;;6.18;2.90;;;;;;;12.01;53.68;100127.19;10345764;28;20084;-56
2023/10/17 20:17:14;;;;;;;3.40;2.53;;;;;;;12.06;53.10;100138.28;10342224;28;20960;-55
2023/10/17 20:22:16;;;;;;;5.88;3.75;;;;;;;12.02;53.16;100135.06;10335813;28;20148;-55
2023/10/17 20:27:17;;;;;;;3.28;2.40;;;;;;;11.99;53.49;100135.31;10346438;28;20421;-54
2023/10/17 20:32:21;;;;;;;4.22;2.78;;;;;;;11.89;54.14;100112.22;10334692;28;20717;-55
2023/10/17 20:37:23;;;;;;;2.93;2.07;;;;;;;11.90;53.73;100119.25;10340994;28;20061;-55
2023/10/17 20:42:24;;;;;;;3.53;3.22;;;;;;;11.86;54.57;100110.69;10339502;28;20796;-55
2023/10/17 20:47:26;;;;;;;2.90;2.47;;;;;;;11.70;54.13;100086.34;10331700;28;21423;-55
2023/10/17 20:52:27;;;;;;;3.08;2.42;;;;;;;11.77;54.84;100092.78;10337169;28;20662;-55
2023/10/17 20:57:29;;;;;;;3.50;2.72;;;;;;;11.61;52.92;100090.66;10338313;28;20057;-57
2023/10/17 21:02:32;;;;;;;5.03;2.97;;;;;;;11.54;53.46;100093.00;10339493;28;20072;-54
2023/10/17 21:07:34;;;;;;;3.72;2.90;;;;;;;11.56;55.51;100085.72;10344303;28;20124;-55
2023/10/17 21:12:37;;;;;;;3.30;2.28;;;;;;;11.39;55.36;100057.03;10338982;28;20060;-55
2023/10/17 21:17:39;;;;;;;3.67;2.22;;;;;;;11.58;56.49;100086.41;10338569;28;20057;-55
2023/10/17 21:22:41;;;;;;;4.40;2.60;;;;;;;11.54;56.05;100087.66;10340357;28;20061;-55
2023/10/17 21:27:46;;;;;;;3.45;2.97;;;;;;;11.48;55.90;100083.72;10342317;28;20053;-53
2023/10/17 21:32:47;;;;;;;3.88;3.58;;;;;;;11.47;56.75;100079.38;10340514;28;20065;-55
2023/10/17 21:37:49;;;;;;;3.05;2.67;;;;;;;11.40;57.07;100070.22;10336935;28;20196;-55
2023/10/17 21:42:59;;;;;;;4.88;3.13;;;;;;;11.37;56.82;100062.47;10346042;28;20531;-55
2023/10/17 21:48:00;;;;;;;3.15;2.50;;;;;;;11.32;56.59;100060.22;10338287;28;20058;-55
2023/10/17 21:53:02;;;;;;;4.35;3.38;;;;;;;11.32;57.37;100057.56;10334390;28;20483;-54
2023/10/17 21:58:04;;;;;;;4.13;3.40;;;;;;;11.18;56.69;100033.09;10342272;28;20191;-54
2023/10/17 22:03:05;;;;;;;4.13;2.88;;;;;;;11.23;56.54;100055.69;10339014;28;20068;-55
2023/10/17 22:08:13;;;;;;;3.95;3.03;;;;;;;11.17;57.00;100056.22;10339750;28;20159;-55
2023/10/17 22:13:14;;;;;;;4.35;2.83;;;;;;;11.14;57.63;100049.34;10342077;28;20474;-55
2023/10/17 22:18:16;;;;;;;7.10;3.92;;;;;;;11.09;58.17;100048.03;10337333;28;20115;-54
2023/10/17 22:23:17;;;;;;;5.00;3.45;;;;;;;11.04;57.71;100042.28;10340747;28;20137;-55
2023/10/17 22:28:19;;;;;;;4.15;3.75;;;;;;;11.01;59.00;100045.19;10344105;28;20060;-54
2023/10/17 22:33:20;;;;;;;3.58;3.28;;;;;;;10.96;58.18;100035.78;10347753;28;20107;-54
2023/10/17 22:38:22;;;;;;;4.13;3.38;;;;;;;10.90;58.38;100038.97;10348341;28;20045;-54
2023/10/17 22:43:24;;;;;;;4.05;3.00;;;;;;;10.81;58.35;100023.78;10347614;28;20066;-54
2023/10/17 22:48:25;;;;;;;7.82;3.50;;;;;;;10.86;58.42;100039.38;10346601;28;20061;-55
2023/10/17 22:53:33;;;;;;;4.57;2.95;;;;;;;10.85;58.71;100032.34;10342758;28;20049;-55
2023/10/17 22:58:37;;;;;;;3.08;2.78;;;;;;;10.80;58.35;100040.72;10352107;28;20053;-55
2023/10/17 23:03:38;;;;;;;6.88;3.58;;;;;;;10.83;58.41;100027.16;10346647;28;20107;-55
2023/10/17 23:08:40;;;;;;;3.42;3.13;;;;;;;10.78;58.83;100010.72;10348206;28;20160;-54
2023/10/17 23:13:42;;;;;;;5.93;3.28;;;;;;;10.78;59.77;100013.41;10348015;28;20049;-55
2023/10/17 23:18:43;;;;;;;4.57;2.53;;;;;;;10.68;58.98;99996.50;10341059;28;20061;-55
2023/10/17 23:23:45;;;;;;;3.42;3.10;;;;;;;10.74;59.23;100006.63;10350560;28;20298;-55
2023/10/17 23:28:47;;;;;;;4.65;2.88;;;;;;;10.60;59.84;99986.53;10343199;28;20430;-54
2023/10/17 23:33:49;;;;;;;4.45;2.75;;;;;;;10.68;59.06;99997.34;10347243;28;20604;-54
2023/10/17 23:38:51;;;;;;;5.35;3.42;;;;;;;10.63;59.25;100007.56;10354034;28;20037;-53
2023/10/17 23:43:52;;;;;;;4.10;3.38;;;;;;;10.57;59.60;100000.09;10346596;28;20052;-54
2023/10/17 23:48:53;;;;;;;4.60;3.30;;;;;;;10.52;59.74;100004.94;10348119;28;20060;-54
2023/10/17 23:53:55;;;;;;;3.75;2.67;;;;;;;10.39;60.43;99983.84;10344697;28;20056;-56
2023/10/17 23:58:57;;;;;;;4.80;3.40;;;;;;;10.42;60.14;100000.41;10344011;28;20145;-55
